メインページ
METAR-TAF:

METAR-TAF

空港 :

アンマン, ヨルダン

緯度: 31-59N, 経度: 035-59E, 海抜: 767m

現時点の気象観測

当レポートは1時間12分前の05:00(UTC)に作成
西の風 8kt
気温 10°C
湿度 87%
気圧 1023 hPa
視程: 3000m
高度3000ftの雲は散在している
高度3500ftの雲は散在している

METAR: OJAM 130500Z 27008KT 3000 BR SCT030 SCT035 10/08 Q1023 NOSIG

時間: 08:12 (06:12 UTC)

予報

当レポートは1時間22分前の04:50(UTC)に作成
予報は13日の 06時(UTC)から 14日の 12時(UTC)まで有効
西/北西の風 10kt
視程: 5000m
高度3000ftの雲はほとんどない
高度3500ftの雲は散在している
確率 40%
13日の 06時(UTC)から 13日の 12時(UTC)まで
西の風 10kt
視程: 4000m
高度3000ftの雲は散在している
高度3500ftの千切れ雲あり
小雨
13日の 18時(UTC)から 13日の 20時(UTC)まで徐々に
北東の風 10kt
視程: 5000m
高度3000ftの雲はほとんどない
煙霧

TAF: OJAM 130450Z 1306/1412 29010KT 5000 BR FEW030 SCT035 PROB40 1306/1312 28010KT 4000 -RA SCT030 BKN035 BECMG 1318/1320 04010KT 5000 HZ FEW030

4,000以上の空港の気象観測と天気予報(METAR報とTAF報)

利用可能な観測所は地図上に黄色い丸と赤い丸で示す。

丸の上にカーソルを重ねると観測所名を参照できる。

次にクリックすると気象観測と天気予報を参照できる。

マップの切り替え:黒色「×」印の緑ボタンをクリックして拡大、「-」印の緑ボタンをクリックして縮小、緑色の三角印をクリックして隣りの地図に切り替え


METAR-TAF: